Skip Navigation Links
NOAA logo - Click to go to the NOAA homepage
NOAA's National Weather Service
Alaska Aviation Weather Unit
  NWS logo - Click to go to the NWS homepage
Left Navbar Graphic     12 AKDT = 20 GMT

   
NOAA is celebrating 200 years of science, service, and stewardship. Visit the NOAA 200th celebration Web site to learn more.
USA.gov is the U.S. Government's official Web portal to all Federal, state and local government Web resources and services.
Facebook
NWS on Facebook

Important Change Regarding the AAWU Web Presence

 

Over the last several months, the AAWU has been working to navigate its webpages to a nationally supported server. Security, as well as other needs, have necessitated the change.  We have been given an extension for the site changeover while we diligently work at addressing feedback received. As of July 14, 2017, aawu.arh.noaa.gov will be discontinued. The new AAWU web address is weather.gov/aawu. It is now live and will run in-parallel with the old site until it is discontinued on July 14, 2017. Please continue to send any feedback or questions regarding the new webpages to nws.ar.aawu.webauthors@noaa.gov.  Thank you for your patience during this time of transition.
AAWU Home :: Display TAF Add Bookmark
TAF PAEN 251720Z 2518/2618 21012KT P6SM VCSH SCT007 OVC011
      TEMPO 2518/2521 -RA BKN007
     FM260000 21010KT P6SM SCT015 BKN025
     FM260300 21008KT P6SM SCT025 BKN050
     FM260900 20006KT P6SM SCT015 OVC025
     FM261200 19004KT P6SM -RA SCT008 OVC015=
METAR PAEN 251453Z 21013KT 10SM SCT007 OVC013 12/11 A3001=

METAR PAEN 251553Z 20011KT 10SM OVC007 12/12 A3000=

METAR PAEN 251653Z 20013KT 10SM SCT007 OVC011 12/12 A3000=

METAR PAEN 251753Z 21010KT 10SM SCT007 OVC012 12/12 A2999=

METAR PAEN 251853Z 22009KT 10SM SCT007 OVC012 12/12 A2999=

METAR PAEN 251953Z 22012KT 10SM SCT007 OVC012 13/12 A2999 RMK AO2
     RAB11E20 SLP156 P0000 T01280122=


NOAA's National Weather Service
Alaska Aviation Weather Unit
6930 Sand Lake Road
Anchorage, AK 99502-1845
Disclaimer
Credits
Glossary
Privacy Policy
About Us
Career Opportunities
Contact AAWU Internet Services Site last modified: April, 17th 2012